Time;durP1;ratioP1;P1;durP2;ratioP2;P2;SDS_P1;SDS_P2;PMS_P1;PMS_P2;Temp;Humidity;BMP_temperature;BMP_pressure;BME280_temperature;BME280_humidity;BME280_pressure;Samples;Min_cycle;Max_cycle;Signal;HPM_P1;HPM_P2
2023/03/28 00:01:18;;;;;;;4.43;3.47;;;;;1.70;96694.00;;;;8468428;28;20260;-68
2023/03/28 00:05:23;;;;;;;4.50;3.03;;;;;1.70;96694.00;;;;8469494;28;20225;-67
2023/03/28 00:09:31;;;;;;;3.47;2.97;;;;;1.60;96690.00;;;;8468062;28;20191;-67
2023/03/28 00:13:36;;;;;;;6.17;3.30;;;;;1.60;96688.00;;;;8468871;28;20531;-67
2023/03/28 00:17:45;;;;;;;3.63;2.50;;;;;1.60;96702.00;;;;8468949;28;20256;-66
2023/03/28 00:21:50;;;;;;;4.13;2.57;;;;;1.60;96700.00;;;;8467773;28;20232;-67
2023/03/28 00:25:53;;;;;;;3.17;2.57;;;;;1.60;96703.00;;;;8469257;28;20250;-66
2023/03/28 00:29:56;;;;;;;6.43;3.00;;;;;1.60;96709.00;;;;8467702;28;20198;-66
2023/03/28 00:34:02;;;;;;;4.57;2.70;;;;;1.60;96700.00;;;;8465916;28;20273;-67
2023/03/28 00:38:06;;;;;;;4.70;2.67;;;;;1.60;96707.00;;;;8467004;28;20203;-66
2023/03/28 00:42:15;;;;;;;3.23;2.50;;;;;1.60;96711.00;;;;8468322;27;20191;-66
2023/03/28 00:46:22;;;;;;;5.43;2.43;;;;;1.60;96720.00;;;;8465416;28;20225;-65
2023/03/28 00:50:31;;;;;;;3.37;2.60;;;;;1.70;96714.00;;;;8466263;28;20197;-65
2023/03/28 00:54:39;;;;;;;6.67;2.93;;;;;1.70;96710.00;;;;8467368;28;20181;-65
2023/03/28 00:58:46;;;;;;;4.33;2.30;;;;;1.70;96716.00;;;;8468329;28;20553;-66
2023/03/28 01:02:52;;;;;;;2.97;2.70;;;;;1.60;96725.00;;;;8467747;28;20229;-66
2023/03/28 01:06:57;;;;;;;2.40;2.30;;;;;1.60;96719.00;;;;8465847;28;20188;-66
2023/03/28 01:11:02;;;;;;;3.57;2.50;;;;;1.60;96723.00;;;;8466051;28;20627;-66
2023/03/28 01:15:07;;;;;;;3.80;2.50;;;;;1.60;96734.00;;;;8466976;28;20243;-66
2023/03/28 01:19:25;;;;;;;3.70;2.93;;;;;1.50;96735.00;;;;8467110;28;20544;-67
2023/03/28 01:24:05;;;;;;;3.37;2.77;;;;;1.50;96743.00;;;;8465629;28;20249;-67
2023/03/28 01:28:38;;;;;;;11.13;3.73;;;;;1.50;96742.00;;;;8467120;28;20612;-67
2023/03/28 01:33:28;;;;;;;7.77;3.00;;;;;1.40;96753.00;;;;8466649;28;20200;-67
2023/03/28 01:37:45;;;;;;;4.20;3.27;;;;;1.50;96745.00;;;;8466622;28;20199;-67
2023/03/28 01:41:57;;;;;;;5.93;4.03;;;;;1.60;96777.00;;;;8465482;28;20200;-67
2023/03/28 01:46:08;;;;;;;6.50;3.83;;;;;1.70;96763.00;;;;8465613;28;20234;-67
2023/03/28 01:50:18;;;;;;;8.10;3.90;;;;;1.60;96763.00;;;;8464774;28;20192;-67
2023/03/28 01:54:33;;;;;;;7.50;4.43;;;;;1.60;96764.00;;;;8465661;28;20232;-67
2023/03/28 01:58:51;;;;;;;6.43;4.03;;;;;1.60;96765.00;;;;8466549;28;20588;-67
2023/03/28 02:03:00;;;;;;;5.37;3.70;;;;;1.50;96764.00;;;;8466225;28;20219;-67
2023/03/28 02:07:20;;;;;;;5.20;3.53;;;;;1.40;96757.00;;;;8465535;28;20285;-67
2023/03/28 02:11:26;;;;;;;6.70;3.80;;;;;1.40;96771.00;;;;8464600;28;20240;-67
2023/03/28 02:15:34;;;;;;;10.57;3.97;;;;;1.30;96756.00;;;;8461914;28;20191;-67
2023/03/28 02:19:44;;;;;;;6.60;3.70;;;;;1.30;96754.00;;;;8463733;28;20187;-67
2023/03/28 02:23:50;;;;;;;4.57;2.97;;;;;1.20;96754.00;;;;8465168;28;20561;-67
2023/03/28 02:28:00;;;;;;;8.47;3.70;;;;;1.20;96759.00;;;;8464803;28;20195;-67
2023/03/28 02:32:03;;;;;;;5.17;3.63;;;;;1.10;96758.00;;;;8465161;28;20232;-67
2023/03/28 02:36:34;;;;;;;8.60;3.73;;;;;1.10;96763.00;;;;8465295;28;20199;-67
2023/03/28 02:40:52;;;;;;;7.53;3.90;;;;;1.10;96767.00;;;;8440965;28;20620;-67
2023/03/28 02:45:13;;;;;;;7.97;3.87;;;;;1.10;96758.00;;;;8464490;28;20226;-67
2023/03/28 02:49:30;;;;;;;12.63;4.40;;;;;1.00;96768.00;;;;8463855;28;20187;-67
2023/03/28 02:54:03;;;;;;;5.70;4.00;;;;;1.00;96770.00;;;;8464242;28;20219;-67
2023/03/28 02:58:10;;;;;;;11.90;4.50;;;;;1.00;96772.00;;;;8463028;28;20200;-66
2023/03/28 03:02:19;;;;;;;10.43;4.97;;;;;1.00;96785.00;;;;8472377;22;20239;-69
2023/03/28 03:06:25;;;;;;;9.10;4.70;;;;;1.00;96779.00;;;;8448975;28;20272;-69
2023/03/28 03:10:28;;;;;;;10.23;4.47;;;;;1.00;96795.00;;;;8457622;28;20244;-68
2023/03/28 03:14:33;;;;;;;11.13;4.80;;;;;1.00;96795.00;;;;8444724;28;20231;-69
2023/03/28 03:18:37;;;;;;;8.63;4.53;;;;;0.90;96794.00;;;;8441522;28;20231;-67
2023/03/28 03:22:49;;;;;;;6.50;4.77;;;;;0.90;96790.00;;;;8456134;28;20252;-69
2023/03/28 03:26:52;;;;;;;9.43;5.03;;;;;0.90;96794.00;;;;8458241;28;20309;-68
2023/03/28 03:30:57;;;;;;;9.80;5.23;;;;;0.80;96787.00;;;;8457065;27;20196;-68
2023/03/28 03:35:01;;;;;;;9.83;4.57;;;;;0.80;96790.00;;;;8453487;27;20574;-69
2023/03/28 03:39:08;;;;;;;11.57;5.43;;;;;0.80;96803.00;;;;8459480;27;20632;-70
2023/03/28 03:43:11;;;;;;;12.80;5.57;;;;;0.80;96811.00;;;;8456786;27;20200;-70
2023/03/28 03:47:16;;;;;;;11.47;5.93;;;;;0.90;96814.00;;;;8454605;27;20219;-69
2023/03/28 03:51:21;;;;;;;7.57;5.10;;;;;1.00;96815.00;;;;8452392;27;20222;-68
2023/03/28 03:55:27;;;;;;;12.70;6.07;;;;;1.10;96818.00;;;;8451094;27;20189;-68
2023/03/28 03:59:30;;;;;;;11.23;6.00;;;;;1.30;96828.00;;;;8448212;27;20195;-68
2023/03/28 04:03:35;;;;;;;9.90;4.80;;;;;1.40;96822.00;;;;8431380;27;20219;-69
2023/03/28 04:07:42;;;;;;;13.20;5.87;;;;;1.50;96829.00;;;;8416265;28;20259;-70
2023/03/28 04:11:45;;;;;;;15.57;7.00;;;;;1.50;96829.00;;;;8417347;28;20333;-67
2023/03/28 04:15:51;;;;;;;15.53;7.10;;;;;1.60;96827.00;;;;8410945;28;20224;-70
2023/03/28 04:19:57;;;;;;;13.40;6.90;;;;;1.60;96829.00;;;;8401082;28;20238;-70
2023/03/28 04:24:04;;;;;;;11.53;5.57;;;;;1.60;96830.00;;;;8406867;28;20625;-69
2023/03/28 04:28:11;;;;;;;12.20;6.83;;;;;1.70;96843.00;;;;8414479;28;20816;-70
2023/03/28 04:32:20;;;;;;;12.23;6.50;;;;;1.70;96842.00;;;;8406989;28;20254;-68
2023/03/28 04:36:26;;;;;;;12.30;6.60;;;;;1.70;96840.00;;;;8423987;28;20200;-70
2023/03/28 04:40:30;;;;;;;12.47;6.60;;;;;1.70;96832.00;;;;8423329;28;20280;-69
2023/03/28 04:44:36;;;;;;;17.23;7.07;;;;;1.70;96847.00;;;;8417153;28;20299;-69
2023/03/28 04:48:42;;;;;;;15.87;7.93;;;;;1.70;96849.00;;;;8410991;28;20848;-71
2023/03/28 04:52:48;;;;;;;13.40;6.53;;;;;1.70;96854.00;;;;8414936;28;20199;-70
2023/03/28 04:56:53;;;;;;;14.43;6.67;;;;;1.70;96863.00;;;;8412234;28;20274;-71
2023/03/28 05:01:02;;;;;;;17.07;6.70;;;;;1.70;96860.00;;;;8416557;28;20197;-70
2023/03/28 05:05:06;;;;;;;11.80;6.07;;;;;1.70;96848.00;;;;8413874;28;20224;-73
2023/03/28 05:09:11;;;;;;;16.90;7.37;;;;;1.60;96864.00;;;;8416297;28;20209;-77
2023/03/28 05:13:22;;;;;;;11.77;5.07;;;;;1.60;96865.00;;;;8407668;28;20302;-70
2023/03/28 05:17:25;;;;;;;18.73;7.10;;;;;1.60;96877.00;;;;8417939;28;20203;-70
2023/03/28 05:21:28;;;;;;;14.10;6.40;;;;;1.60;96890.00;;;;8412154;28;20312;-72
2023/03/28 05:25:35;;;;;;;8.47;6.37;;;;;1.50;96878.00;;;;8412972;28;21059;-68
2023/03/28 05:29:40;;;;;;;16.53;7.63;;;;;1.50;96872.00;;;;8412035;28;20279;-70
2023/03/28 05:33:43;;;;;;;12.17;5.47;;;;;1.40;96887.00;;;;8415233;28;20191;-71
2023/03/28 05:37:46;;;;;;;16.37;7.40;;;;;1.40;96892.00;;;;8418305;28;20201;-74
2023/03/28 05:41:50;;;;;;;16.93;6.53;;;;;1.50;96890.00;;;;8418590;28;20191;-81
2023/03/28 05:45:57;;;;;;;12.57;6.20;;;;;1.50;96901.00;;;;8418501;28;20746;-74
2023/03/28 05:50:02;;;;;;;11.63;6.37;;;;;1.50;96905.00;;;;8415029;28;20291;-71
2023/03/28 05:54:07;;;;;;;18.93;7.17;;;;;1.50;96911.00;;;;8398402;28;20284;-68
2023/03/28 05:58:12;;;;;;;9.13;5.67;;;;;1.40;96901.00;;;;8417903;28;20258;-70
2023/03/28 06:02:19;;;;;;;12.63;6.37;;;;;1.40;96912.00;;;;8415439;28;20222;-68
2023/03/28 06:06:22;;;;;;;17.93;8.07;;;;;1.40;96921.00;;;;8417110;28;20219;-66
2023/03/28 06:10:25;;;;;;;15.93;7.53;;;;;1.50;96925.00;;;;8413465;28;20201;-70
2023/03/28 06:14:28;;;;;;;14.60;6.33;;;;;1.60;96932.00;;;;8412551;28;20354;-65
2023/03/28 06:18:33;;;;;;;19.90;6.30;;;;;1.70;96938.00;;;;8415401;28;20243;-67
2023/03/28 06:22:41;;;;;;;12.40;6.30;;;;;1.90;96935.00;;;;8415644;28;20208;-68
2023/03/28 06:26:45;;;;;;;16.87;9.67;;;;;2.00;96948.00;;;;8417322;28;20222;-67
2023/03/28 06:30:49;;;;;;;101.13;41.83;;;;;2.10;96949.00;;;;8413685;28;20203;-66
2023/03/28 06:35:07;;;;;;;17.47;7.50;;;;;2.30;96953.00;;;;8415079;28;20206;-69
2023/03/28 06:39:18;;;;;;;16.63;7.57;;;;;2.30;96948.00;;;;8415811;28;20197;-77
2023/03/28 06:43:26;;;;;;;13.30;8.80;;;;;2.50;96954.00;;;;8416733;28;20195;-68
2023/03/28 06:47:29;;;;;;;16.17;6.23;;;;;2.70;96968.00;;;;8410057;28;20678;-67
2023/03/28 06:51:35;;;;;;;13.97;7.30;;;;;2.80;96980.00;;;;8415742;28;20209;-67
2023/03/28 06:55:40;;;;;;;11.23;5.57;;;;;2.90;96985.00;;;;8415813;28;20610;-66
2023/03/28 06:59:43;;;;;;;12.30;4.90;;;;;2.90;96981.00;;;;8417084;28;20204;-68
2023/03/28 07:03:46;;;;;;;11.93;4.50;;;;;2.90;97000.00;;;;8415938;28;20232;-70
2023/03/28 07:07:55;;;;;;;14.47;4.40;;;;;3.00;97002.00;;;;8420916;28;20591;-67
2023/03/28 07:11:58;;;;;;;12.67;4.47;;;;;3.10;97010.00;;;;8430351;28;20197;-72
2023/03/28 07:16:04;;;;;;;9.97;4.93;;;;;3.20;97011.00;;;;8435521;28;20627;-72
2023/03/28 07:20:11;;;;;;;9.83;4.57;;;;;3.40;97017.00;;;;8431257;28;20184;-74
2023/03/28 07:24:15;;;;;;;8.23;4.03;;;;;3.50;97027.00;;;;8433755;28;20202;-71
2023/03/28 07:28:23;;;;;;;7.47;2.93;;;;;3.60;97046.00;;;;8425788;28;20275;-68
2023/03/28 07:32:26;;;;;;;10.10;4.43;;;;;3.70;97045.00;;;;8421841;28;20225;-75
2023/03/28 07:36:42;;;;;;;12.57;4.80;;;;;3.90;97046.00;;;;8417915;28;20207;-72
2023/03/28 07:40:50;;;;;;;7.07;3.80;;;;;4.10;97056.00;;;;8423522;28;20996;-73
2023/03/28 07:45:03;;;;;;;10.53;3.50;;;;;4.40;97069.00;;;;8403929;28;20766;-71
2023/03/28 07:49:07;;;;;;;9.83;4.20;;;;;4.50;97062.00;;;;8427193;28;20774;-72
2023/03/28 07:53:12;;;;;;;12.87;3.70;;;;;4.50;97063.00;;;;8428404;28;20609;-76
2023/03/28 07:57:19;;;;;;;8.70;3.30;;;;;4.60;97067.00;;;;8421131;28;20203;-76
2023/03/28 08:01:22;;;;;;;7.73;3.93;;;;;4.70;97064.00;;;;8425265;28;20194;-73
2023/03/28 08:05:28;;;;;;;8.80;4.10;;;;;4.90;97075.00;;;;8418304;28;20197;-73
2023/03/28 08:09:33;;;;;;;7.87;4.27;;;;;5.20;97073.00;;;;8427927;28;20202;-73
2023/03/28 08:13:38;;;;;;;10.17;3.90;;;;;5.50;97078.00;;;;8438285;28;20234;-72
2023/03/28 08:17:45;;;;;;;9.47;3.27;;;;;5.50;97085.00;;;;8437212;28;20735;-73
2023/03/28 08:21:51;;;;;;;10.37;3.67;;;;;5.30;97094.00;;;;8422869;28;20647;-72
2023/03/28 08:26:03;;;;;;;5.07;3.20;;;;;5.60;97097.00;;;;8421000;28;20223;-75
2023/03/28 08:30:13;;;;;;;14.17;2.80;;;;;5.80;97100.00;;;;8428552;28;20656;-74
2023/03/28 08:34:19;;;;;;;11.57;3.33;;;;;5.80;97108.00;;;;8420489;28;20762;-75
2023/03/28 08:38:22;;;;;;;14.73;3.27;;;;;5.80;97116.00;;;;8417507;28;20202;-74
2023/03/28 08:42:37;;;;;;;9.77;3.60;;;;;5.90;97121.00;;;;8420799;28;20225;-74
2023/03/28 08:46:44;;;;;;;7.73;2.23;;;;;5.80;97125.00;;;;8414476;28;20230;-73
2023/03/28 08:50:52;;;;;;;4.53;2.33;;;;;5.80;97118.00;;;;8420091;28;20199;-74
2023/03/28 08:55:01;;;;;;;5.50;2.37;;;;;5.90;97128.00;;;;8422759;28;20222;-74
2023/03/28 08:59:07;;;;;;;9.77;2.90;;;;;6.10;97130.00;;;;8420325;28;20256;-74
2023/03/28 09:03:17;;;;;;;9.77;2.80;;;;;6.30;97131.00;;;;8419511;28;20237;-73
2023/03/28 09:07:31;;;;;;;8.53;2.53;;;;;6.50;97133.00;;;;8419130;28;20219;-79
2023/03/28 09:11:44;;;;;;;9.03;2.50;;;;;6.40;97121.00;;;;8419653;28;20256;-77
2023/03/28 09:16:05;;;;;;;12.00;5.00;;;;;6.20;97132.00;;;;8416069;28;20246;-77
2023/03/28 09:20:18;;;;;;;11.37;4.47;;;;;6.20;97135.00;;;;8417726;28;20636;-77
2023/03/28 09:24:34;;;;;;;9.97;2.10;;;;;6.10;97133.00;;;;8419407;28;20218;-77
2023/03/28 09:28:44;;;;;;;6.27;2.00;;;;;6.10;97141.00;;;;8418621;28;20277;-79
2023/03/28 09:32:51;;;;;;;7.97;2.20;;;;;5.90;97128.00;;;;8413857;28;20247;-78
2023/03/28 09:37:01;;;;;;;6.40;1.93;;;;;5.80;97123.00;;;;8422701;28;20202;-79
2023/03/28 09:41:14;;;;;;;7.30;2.00;;;;;5.70;97125.00;;;;8421139;28;20257;-77
2023/03/28 09:45:31;;;;;;;8.43;2.30;;;;;5.60;97141.00;;;;8418413;28;20241;-76
2023/03/28 09:49:37;;;;;;;4.73;2.20;;;;;5.50;97141.00;;;;8412865;28;20231;-78
2023/03/28 09:53:41;;;;;;;7.87;1.90;;;;;5.70;97136.00;;;;8433253;28;20203;-77
2023/03/28 09:58:02;;;;;;;14.87;2.10;;;;;5.90;97145.00;;;;8412229;28;20249;-81
2023/03/28 10:02:05;;;;;;;3.87;2.30;;;;;5.70;97139.00;;;;8414368;28;20612;-78
2023/03/28 10:06:19;;;;;;;3.30;2.10;;;;;5.60;97148.00;;;;8416759;28;20198;-77
2023/03/28 10:10:27;;;;;;;2.27;1.80;;;;;5.60;97153.00;;;;8417149;28;20810;-77
2023/03/28 10:14:37;;;;;;;6.60;1.93;;;;;5.90;97154.00;;;;8417209;28;20202;-80
2023/03/28 10:18:42;;;;;;;8.27;2.30;;;;;6.10;97157.00;;;;8422356;28;20854;-74
2023/03/28 10:22:48;;;;;;;6.97;1.73;;;;;6.10;97153.00;;;;8416108;28;20192;-76
2023/03/28 10:26:57;;;;;;;5.93;2.07;;;;;6.10;97156.00;;;;8416368;28;20565;-78
2023/03/28 10:31:04;;;;;;;9.70;1.70;;;;;5.90;97150.00;;;;8421289;28;20198;-78
2023/03/28 10:35:17;;;;;;;4.47;2.07;;;;;5.90;97164.00;;;;8420679;28;20225;-81
2023/03/28 10:39:28;;;;;;;7.33;2.00;;;;;6.20;97155.00;;;;8410621;28;20644;-83
2023/03/28 10:43:38;;;;;;;2.83;1.77;;;;;6.30;97178.00;;;;8421519;28;20199;-78
2023/03/28 10:47:42;;;;;;;9.23;2.03;;;;;6.30;97168.00;;;;8430979;28;20760;-78
2023/03/28 10:51:45;;;;;;;8.43;2.40;;;;;6.50;97176.00;;;;8426555;28;20228;-74
2023/03/28 10:56:05;;;;;;;6.33;2.13;;;;;6.70;97181.00;;;;8419508;28;20203;-76
2023/03/28 11:00:17;;;;;;;6.07;1.80;;;;;7.40;97169.00;;;;8418571;28;20293;-76
2023/03/28 11:04:32;;;;;;;6.10;1.70;;;;;7.60;97172.00;;;;8425257;28;20630;-76
2023/03/28 11:08:49;;;;;;;6.33;2.10;;;;;7.80;97176.00;;;;8422629;28;20268;-74
2023/03/28 11:13:03;;;;;;;8.60;1.73;;;;;7.80;97178.00;;;;8425942;28;20248;-75
2023/03/28 11:17:16;;;;;;;4.83;2.30;;;;;7.60;97174.00;;;;8421442;28;20686;-75
2023/03/28 11:21:25;;;;;;;5.40;1.77;;;;;7.30;97169.00;;;;8407728;28;20256;-74
2023/03/28 11:25:41;;;;;;;7.50;2.10;;;;;7.20;97167.00;;;;8419323;28;20187;-74
2023/03/28 11:29:53;;;;;;;4.97;1.80;;;;;7.50;97165.00;;;;8428409;28;20685;-75
2023/03/28 11:34:06;;;;;;;5.23;1.80;;;;;7.70;97161.00;;;;8415661;28;20206;-74
2023/03/28 11:38:16;;;;;;;2.90;1.43;;;;;7.60;97168.00;;;;8421996;28;20204;-74
2023/03/28 11:42:26;;;;;;;9.83;2.47;;;;;7.70;97169.00;;;;8415763;28;20703;-75
2023/03/28 11:46:37;;;;;;;5.23;1.50;;;;;8.20;97161.00;;;;8421498;28;20548;-75
2023/03/28 11:50:50;;;;;;;4.57;1.87;;;;;8.90;97173.00;;;;8426159;28;20206;-74
2023/03/28 11:55:03;;;;;;;4.93;1.60;;;;;9.00;97168.00;;;;8415782;28;20632;-74
2023/03/28 11:59:12;;;;;;;10.00;1.77;;;;;8.80;97161.00;;;;8425372;28;20211;-74
2023/03/28 12:03:23;;;;;;;4.90;1.63;;;;;8.70;97166.00;;;;8417125;28;20292;-74
2023/03/28 12:07:35;;;;;;;6.47;1.90;;;;;8.50;97153.00;;;;8420993;28;20220;-75
2023/03/28 12:11:48;;;;;;;8.00;1.83;;;;;8.70;97141.00;;;;8420378;28;20280;-74
2023/03/28 12:16:17;;;;;;;6.20;1.50;;;;;9.20;97146.00;;;;8421738;28;20248;-74
2023/03/28 12:20:30;;;;;;;9.30;2.00;;;;;9.50;97145.00;;;;8421562;28;20203;-74
2023/03/28 12:24:43;;;;;;;6.38;2.05;;;;;9.30;97138.00;;;;8428511;28;20660;-73
2023/03/28 12:28:54;;;;;;;8.63;2.03;;;;;8.80;97136.00;;;;8434965;28;20668;-73
2023/03/28 12:33:08;;;;;;;4.93;1.70;;;;;8.90;97124.00;;;;8434225;28;20191;-73
2023/03/28 12:37:20;;;;;;;8.13;1.90;;;;;8.90;97118.00;;;;8433914;28;20231;-72
2023/03/28 12:41:28;;;;;;;5.35;1.80;;;;;8.90;97114.00;;;;8434199;28;20191;-75
2023/03/28 12:45:38;;;;;;;4.43;1.50;;;;;9.10;97122.00;;;;8434351;28;20612;-75
2023/03/28 12:49:48;;;;;;;3.67;1.70;;;;;9.00;97117.00;;;;8433384;28;20716;-76
2023/03/28 12:54:05;;;;;;;5.90;2.00;;;;;8.90;97110.00;;;;8433763;28;20677;-75
2023/03/28 12:58:21;;;;;;;4.28;2.05;;;;;9.00;97116.00;;;;8433532;28;20197;-76
2023/03/28 13:02:30;;;;;;;4.50;1.63;;;;;8.70;97121.00;;;;8433722;28;20234;-76
2023/03/28 13:06:52;;;;;;;13.57;2.33;;;;;8.40;97122.00;;;;8433161;28;20687;-77
2023/03/28 13:11:06;;;;;;;7.43;1.97;;;;;8.20;97126.00;;;;8433493;28;20300;-77
2023/03/28 13:15:34;;;;;;;4.23;2.10;;;;;8.20;97131.00;;;;8433600;28;20240;-76
2023/03/28 13:19:54;;;;;;;4.33;1.70;;;;;8.50;97118.00;;;;8432384;28;20195;-76
2023/03/28 13:23:57;;;;;;;4.27;1.70;;;;;8.70;97125.00;;;;8431265;28;20175;-76
2023/03/28 13:28:36;;;;;;;2.93;1.73;;;;;8.80;97121.00;;;;8433456;28;20207;-76
2023/03/28 13:32:45;;;;;;;10.67;2.00;;;;;8.90;97119.00;;;;8430141;28;20649;-76
2023/03/28 13:36:54;;;;;;;2.87;1.97;;;;;9.10;97119.00;;;;8414208;28;20241;-76
2023/03/28 13:41:05;;;;;;;6.00;1.70;;;;;9.20;97113.00;;;;8433265;28;20195;-76
2023/03/28 13:45:22;;;;;;;5.83;2.20;;;;;9.50;97115.00;;;;8431077;28;20226;-77
2023/03/28 13:49:36;;;;;;;5.90;1.73;;;;;9.70;97098.00;;;;8431945;28;20601;-77
2023/03/28 13:53:42;;;;;;;3.97;1.67;;;;;9.90;97102.00;;;;8428941;28;20286;-77
2023/03/28 13:57:51;;;;;;;5.82;1.90;;;;;10.20;97098.00;;;;8431723;28;20183;-76
2023/03/28 14:01:58;;;;;;;4.05;1.70;;;;;10.20;97093.00;;;;8430533;28;20227;-76
2023/03/28 14:06:12;;;;;;;5.00;1.77;;;;;10.10;97101.00;;;;8422680;28;20317;-75
2023/03/28 14:10:27;;;;;;;3.90;1.90;;;;;10.40;97093.00;;;;8427510;28;20257;-77
2023/03/28 14:14:37;;;;;;;6.40;2.08;;;;;10.70;97093.00;;;;8430655;28;20279;-77
2023/03/28 14:18:46;;;;;;;3.05;1.95;;;;;10.80;97086.00;;;;8431965;28;20528;-78
2023/03/28 14:22:56;;;;;;;6.30;2.00;;;;;11.00;97087.00;;;;8431370;28;20182;-77
2023/03/28 14:27:10;;;;;;;4.40;1.70;;;;;10.60;97082.00;;;;8430861;28;20291;-77
2023/03/28 14:31:29;;;;;;;3.65;2.08;;;;;10.10;97078.00;;;;8428066;28;20223;-76
2023/03/28 14:35:35;;;;;;;5.15;2.00;;;;;9.90;97083.00;;;;8428197;28;20198;-75
2023/03/28 14:39:44;;;;;;;6.15;1.85;;;;;10.10;97071.00;;;;8424983;28;20572;-76
2023/03/28 14:43:51;;;;;;;3.40;1.80;;;;;10.60;97064.00;;;;8428950;28;20290;-76
2023/03/28 14:47:58;;;;;;;8.70;2.15;;;;;11.10;97070.00;;;;8427184;28;20268;-76
2023/03/28 14:52:11;;;;;;;4.85;1.88;;;;;11.20;97061.00;;;;8431185;28;20203;-79
2023/03/28 14:56:23;;;;;;;3.03;1.58;;;;;11.30;97064.00;;;;8430683;28;20184;-78
2023/03/28 15:00:34;;;;;;;2.60;1.58;;;;;11.30;97058.00;;;;8430145;28;20191;-76
2023/03/28 15:04:38;;;;;;;3.72;1.85;;;;;11.40;97058.00;;;;8431301;28;20273;-77
2023/03/28 15:08:44;;;;;;;3.88;1.80;;;;;11.40;97062.00;;;;8427003;28;20223;-78
2023/03/28 15:13:00;;;;;;;4.78;1.80;;;;;11.40;97060.00;;;;8426519;28;20227;-77
2023/03/28 15:17:17;;;;;;;4.47;1.70;;;;;11.20;97053.00;;;;8426530;28;20196;-77
2023/03/28 15:21:23;;;;;;;3.35;2.03;;;;;11.20;97038.00;;;;8426449;28;20227;-76
2023/03/28 15:25:27;;;;;;;5.35;1.90;;;;;11.00;97043.00;;;;8428744;28;20242;-77
2023/03/28 15:29:35;;;;;;;5.18;1.70;;;;;10.80;97049.00;;;;8432465;28;20218;-77
2023/03/28 15:33:44;;;;;;;5.03;2.10;;;;;10.80;97036.00;;;;8436486;28;20565;-77
2023/03/28 15:37:47;;;;;;;2.67;1.60;;;;;10.70;97027.00;;;;8435109;28;20203;-76
2023/03/28 15:41:54;;;;;;;5.95;1.90;;;;;10.50;97032.00;;;;8435261;28;20634;-76
2023/03/28 15:46:00;;;;;;;3.83;2.07;;;;;10.40;97033.00;;;;8433865;28;20639;-76
2023/03/28 15:50:12;;;;;;;3.42;1.80;;;;;10.30;97031.00;;;;8435310;28;20226;-76
2023/03/28 15:54:19;;;;;;;4.18;1.80;;;;;10.20;97024.00;;;;8430680;28;20665;-76
2023/03/28 15:58:42;;;;;;;4.53;2.13;;;;;9.90;97026.00;;;;8433371;28;20176;-77
2023/03/28 16:02:49;;;;;;;2.85;1.58;;;;;9.90;97028.00;;;;8435352;28;20220;-76
2023/03/28 16:07:06;;;;;;;5.22;1.75;;;;;9.70;97026.00;;;;8434687;28;20205;-76
2023/03/28 16:11:16;;;;;;;1.88;1.67;;;;;9.70;97026.00;;;;8435289;28;20597;-76
2023/03/28 16:15:23;;;;;;;3.80;1.90;;;;;9.50;97025.00;;;;8417730;28;20191;-76
2023/03/28 16:19:35;;;;;;;7.60;2.00;;;;;9.30;97028.00;;;;8428609;28;20219;-75
2023/03/28 16:23:45;;;;;;;7.20;1.90;;;;;9.30;97017.00;;;;8434030;28;20188;-75
2023/03/28 16:27:48;;;;;;;4.45;1.77;;;;;9.30;97024.00;;;;8434516;28;20597;-76
2023/03/28 16:31:51;;;;;;;4.03;1.70;;;;;9.30;97028.00;;;;8429437;28;20675;-75
2023/03/28 16:36:00;;;;;;;3.90;2.20;;;;;9.20;97020.00;;;;8425050;28;20203;-77
2023/03/28 16:40:07;;;;;;;4.05;1.90;;;;;9.10;97023.00;;;;8430928;28;20201;-76
2023/03/28 16:44:13;;;;;;;4.13;1.90;;;;;9.10;97019.00;;;;8430137;28;20195;-75
2023/03/28 16:48:21;;;;;;;6.93;2.37;;;;;9.00;97011.00;;;;8416675;28;20180;-73
2023/03/28 16:52:37;;;;;;;5.18;1.90;;;;;8.80;97009.00;;;;8414848;28;20195;-76
2023/03/28 16:56:41;;;;;;;4.65;2.03;;;;;8.80;97006.00;;;;8414522;28;20202;-74
2023/03/28 17:00:47;;;;;;;2.88;1.70;;;;;8.70;97012.00;;;;8409134;28;20484;-76
2023/03/28 17:04:50;;;;;;;4.72;2.40;;;;;8.60;97006.00;;;;8432932;28;20216;-76
2023/03/28 17:08:57;;;;;;;5.00;2.40;;;;;8.50;97005.00;;;;8413538;28;20536;-75
2023/03/28 17:13:03;;;;;;;6.15;2.30;;;;;8.30;97002.00;;;;8421952;28;20340;-75
2023/03/28 17:17:08;;;;;;;6.90;2.47;;;;;8.20;96998.00;;;;8429183;28;20562;-76
2023/03/28 17:21:17;;;;;;;5.90;2.70;;;;;8.10;97004.00;;;;8433142;28;20283;-76
2023/03/28 17:25:30;;;;;;;4.33;2.87;;;;;7.90;96992.00;;;;8433222;28;20236;-76
2023/03/28 17:29:43;;;;;;;6.07;2.57;;;;;7.70;96999.00;;;;8433243;28;20571;-76
2023/03/28 17:33:48;;;;;;;4.27;2.73;;;;;7.40;96997.00;;;;8425990;28;20543;-75
2023/03/28 17:37:54;;;;;;;2.40;1.80;;;;;7.00;96976.00;;;;8431206;28;20249;-77
2023/03/28 17:41:59;;;;;;;3.73;2.00;;;;;6.70;96981.00;;;;8429214;28;20195;-76
2023/03/28 17:46:07;;;;;;;5.10;1.90;;;;;6.40;96986.00;;;;8428661;28;20244;-83
2023/03/28 17:50:13;;;;;;;8.33;2.50;;;;;6.10;96979.00;;;;8415229;28;20728;-84
2023/03/28 17:54:16;;;;;;;5.97;2.60;;;;;5.90;96984.00;;;;8432730;28;20195;-84
2023/03/28 17:58:23;;;;;;;3.20;2.67;;;;;5.60;96982.00;;;;8432521;28;20277;-84
2023/03/28 18:02:26;;;;;;;5.73;1.97;;;;;5.30;96980.00;;;;8429445;28;20306;-83
2023/03/28 18:06:30;;;;;;;3.17;1.97;;;;;5.10;96973.00;;;;8431723;28;20199;-79
2023/03/28 18:10:33;;;;;;;9.63;2.57;;;;;4.80;96969.00;;;;8429794;28;20223;-79
2023/03/28 18:14:40;;;;;;;4.00;1.90;;;;;4.60;96959.00;;;;8431258;28;20249;-79
2023/03/28 18:18:44;;;;;;;4.07;2.20;;;;;4.40;96959.00;;;;8431445;28;20183;-79
2023/03/28 18:22:49;;;;;;;8.73;3.80;;;;;4.20;96963.00;;;;8431445;28;20582;-78
2023/03/28 18:26:52;;;;;;;9.63;3.53;;;;;4.10;96960.00;;;;8430020;28;20612;-79
2023/03/28 18:31:06;;;;;;;3.83;3.00;;;;;4.00;96945.00;;;;8428830;28;20230;-77
2023/03/28 18:35:11;;;;;;;6.67;2.70;;;;;4.00;96943.00;;;;8430021;28;20525;-77
2023/03/28 18:39:15;;;;;;;8.03;3.10;;;;;3.90;96946.00;;;;8430615;28;20267;-83
2023/03/28 18:43:24;;;;;;;9.10;3.80;;;;;3.80;96936.00;;;;8428522;28;20196;-80
2023/03/28 18:47:29;;;;;;;7.80;3.87;;;;;3.70;96944.00;;;;8431370;28;20195;-82
2023/03/28 18:51:41;;;;;;;10.53;4.90;;;;;3.60;96927.00;;;;8425230;28;20603;-82
2023/03/28 18:55:48;;;;;;;12.13;4.53;;;;;3.40;96914.00;;;;8430618;28;20183;-79
2023/03/28 18:59:54;;;;;;;9.30;5.17;;;;;3.20;96914.00;;;;8428771;28;20651;-82
2023/03/28 19:03:59;;;;;;;32.63;12.37;;;;;3.10;96915.00;;;;8435004;28;20605;-82
2023/03/28 19:08:07;;;;;;;17.37;7.60;;;;;3.00;96921.00;;;;8436355;28;20210;-78
2023/03/28 19:12:11;;;;;;;18.30;6.77;;;;;2.90;96911.00;;;;8436118;28;20303;-77
2023/03/28 19:16:17;;;;;;;10.10;4.70;;;;;2.80;96915.00;;;;8435860;28;20243;-77
2023/03/28 19:20:22;;;;;;;7.90;4.20;;;;;2.60;96928.00;;;;8435118;28;20637;-80
2023/03/28 19:24:26;;;;;;;13.37;4.43;;;;;2.50;96919.00;;;;8436650;28;20230;-77
2023/03/28 19:28:30;;;;;;;10.40;5.30;;;;;2.40;96909.00;;;;8428839;28;20207;-77
2023/03/28 19:32:49;;;;;;;7.40;3.70;;;;;2.30;96912.00;;;;8431629;28;20271;-78
2023/03/28 19:36:55;;;;;;;7.50;4.20;;;;;2.20;96924.00;;;;8431533;28;20202;-77
2023/03/28 19:41:17;;;;;;;10.43;4.83;;;;;2.10;96906.00;;;;8425636;28;20190;-75
2023/03/28 19:45:20;;;;;;;13.97;5.40;;;;;2.10;96907.00;;;;8431663;28;20523;-80
2023/03/28 19:49:24;;;;;;;7.93;4.23;;;;;2.10;96898.00;;;;8430929;28;20246;-78
2023/03/28 19:53:31;;;;;;;9.63;4.57;;;;;2.00;96902.00;;;;8436326;28;20264;-76
2023/03/28 19:57:35;;;;;;;9.60;4.40;;;;;1.90;96891.00;;;;8434172;28;20200;-78
2023/03/28 20:01:38;;;;;;;6.87;4.50;;;;;1.80;96887.00;;;;8430758;28;20275;-77
2023/03/28 20:05:45;;;;;;;10.37;4.47;;;;;1.80;96888.00;;;;8432013;28;20662;-76
2023/03/28 20:10:10;;;;;;;10.10;4.77;;;;;1.80;96878.00;;;;8432311;28;20211;-76
2023/03/28 20:14:16;;;;;;;8.40;5.00;;;;;1.70;96876.00;;;;8429252;28;20864;-78
2023/03/28 20:18:23;;;;;;;9.80;4.50;;;;;1.70;96866.00;;;;8428456;28;20531;-76
2023/03/28 20:22:28;;;;;;;10.43;4.87;;;;;1.70;96861.00;;;;8434009;28;20226;-75
2023/03/28 20:26:35;;;;;;;8.47;4.60;;;;;1.70;96865.00;;;;8409575;28;20222;-74
2023/03/28 20:30:39;;;;;;;8.70;5.17;;;;;1.70;96860.00;;;;8427944;28;20213;-74
2023/03/28 20:34:42;;;;;;;7.63;5.30;;;;;1.70;96865.00;;;;8433339;28;20544;-74
2023/03/28 20:38:46;;;;;;;6.43;4.17;;;;;1.80;96859.00;;;;8431486;28;20240;-74
2023/03/28 20:42:51;;;;;;;10.87;5.40;;;;;1.80;96855.00;;;;8432229;28;20201;-74
2023/03/28 20:46:55;;;;;;;9.53;4.40;;;;;1.90;96863.00;;;;8433550;28;20237;-74
2023/03/28 20:51:01;;;;;;;8.17;5.03;;;;;2.00;96858.00;;;;8434381;28;20552;-74
2023/03/28 20:55:08;;;;;;;12.90;5.67;;;;;2.10;96862.00;;;;8433112;28;20285;-73